首页
METAR-TAF:

METAR-TAF

机场 :

寧波櫟社國際機場

宁波市, 中华人民共和国

纬度: 29-49-36N, 经度: 121-27-43E, 海拔: 4米

当前天气观测

该预报发布于29分钟前的02:00 UTC
风速10节,风向东转东南
温度 31°C
湿度 79%
气压 1005 hPa
能见度10公里或以上
散云层高于2000英尺
少量云层高于2300英尺, 塔状积云.

METAR: ZSNB 190200Z 12005MPS 9999 SCT020 FEW023TCU 31/27 Q1005 NOSIG

时间: 10:29 (02:29 UTC)

预报

该预报发布于6小时和58分钟前的19:31 UTC
预报有效从19日的 00点(UTC)到 19日的 24点(UTC)
风速8节,风向南转南东
能見度: 6000
散云层高于2300英尺
短暂存在
从 19日的 06点(UTC)到 19日的 12点(UTC)
多云层高于2000英尺
少量云层高于3300英尺, 积雨云.
阵雨

TAF: ZSNB 181931Z 1900/1924 15004MPS 6000 SCT023 TX32/1906Z TN26/1921Z TEMPO 1906/1912 SHRA BKN020 FEW033CB

超过4000个机场的气象观测和天气预报(METAR&TAF报告)。

可查询的气象台以黄色和红色小点在地图上表示。

将鼠标移到小点上方,可查看气象台名称。

然后点击查看天气观测和预报。

如需切换地图:点击带黑十字的绿色按钮放大地图;点击带横线的绿色按钮缩小地图;或者点击绿色箭头查看邻近地区的地图。


METAR-TAF: